createdAt,value
2019-04-11T00:01:35.039Z,19.12
2019-04-11T00:06:23.562Z,17.45
2019-04-11T00:08:53.008Z,15.72
2019-04-11T00:11:24.039Z,14.58
2019-04-11T00:13:53.649Z,19.40
2019-04-11T00:16:23.516Z,17.20
2019-04-11T00:18:54.717Z,15.75
2019-04-11T00:21:24.615Z,18.87
2019-04-11T00:23:54.502Z,17.12
2019-04-11T00:26:24.400Z,19.67
2019-04-11T00:28:54.216Z,19.85
2019-04-11T00:31:23.654Z,18.05
2019-04-11T00:33:54.183Z,18.65
2019-04-11T00:36:24.211Z,18.35
2019-04-11T00:38:55.180Z,16.05
2019-04-11T00:41:24.604Z,18.32
2019-04-11T00:43:54.657Z,17.05
2019-04-11T00:46:24.551Z,14.53
2019-04-11T00:48:54.499Z,16.70
2019-04-11T00:51:23.890Z,16.77
2019-04-11T00:53:54.142Z,18.07
2019-04-11T00:56:24.150Z,17.50
2019-04-11T00:58:54.025Z,16.27
2019-04-11T01:01:24.022Z,18.57
2019-04-11T01:03:54.211Z,21.73
2019-04-11T01:06:23.501Z,18.17
2019-04-11T01:08:53.700Z,18.07
2019-04-11T01:11:23.793Z,18.32
2019-04-11T01:13:55.364Z,17.17
2019-04-11T01:16:26.315Z,17.02
2019-04-11T01:18:55.615Z,17.75
2019-04-11T01:21:24.913Z,19.12
2019-04-11T01:23:55.239Z,19.92
2019-04-11T01:26:25.373Z,20.77
2019-04-11T01:28:55.920Z,19.10
2019-04-11T01:31:27.351Z,18.92
2019-04-11T01:33:57.083Z,15.95
2019-04-11T01:36:26.978Z,16.30
2019-04-11T01:39:15.241Z,17.00
2019-04-11T01:41:44.991Z,19.27
2019-04-11T01:44:14.527Z,17.35
2019-04-11T01:46:44.443Z,17.92
2019-04-11T01:49:22.674Z,18.55
2019-04-11T01:51:52.137Z,17.48
2019-04-11T01:54:21.797Z,20.25
2019-04-11T01:56:51.621Z,18.23
2019-04-11T01:59:21.604Z,21.52
2019-04-11T02:02:05.392Z,18.92
2019-04-11T02:04:46.053Z,19.02
2019-04-11T02:07:15.567Z,18.27
2019-04-11T02:09:44.969Z,21.55
2019-04-11T02:12:14.355Z,22.58
2019-04-11T02:14:43.962Z,19.25
2019-04-11T02:17:13.359Z,19.02
2019-04-11T02:19:42.762Z,23.05
2019-04-11T02:22:32.725Z,17.77
2019-04-11T02:25:13.003Z,18.07
2019-04-11T02:27:42.390Z,20.62
2019-04-11T02:30:14.351Z,18.25
2019-04-11T02:32:44.911Z,19.57
2019-04-11T02:35:15.393Z,20.02
2019-04-11T02:37:47.649Z,20.62
2019-04-11T02:40:17.661Z,19.45
2019-04-11T02:42:47.599Z,19.75
2019-04-11T02:45:35.523Z,20.65
2019-04-11T02:47:50.971Z,21.65
2019-04-11T02:50:21.968Z,23.57
2019-04-11T02:52:52.049Z,21.95
2019-04-11T02:55:22.877Z,21.45
2019-04-11T02:57:52.320Z,22.75
2019-04-11T03:00:21.664Z,20.62
2019-04-11T03:02:53.109Z,22.87
2019-04-11T03:05:22.323Z,21.73
2019-04-11T03:07:51.702Z,21.75
2019-04-11T03:10:21.416Z,22.48
2019-04-11T03:12:52.536Z,20.17
2019-04-11T03:15:37.673Z,24.32
2019-04-11T03:17:57.687Z,25.37
2019-04-11T03:20:32.557Z,22.85
2019-04-11T03:23:00.394Z,19.73
2019-04-11T03:25:28.390Z,24.00
2019-04-11T03:28:01.240Z,20.85
2019-04-11T03:30:52.083Z,23.12
2019-04-11T03:33:55.586Z,21.70
2019-04-11T03:36:22.135Z,23.73
2019-04-11T03:38:33.091Z,21.52
2019-04-11T03:40:55.264Z,23.47
2019-04-11T03:43:22.706Z,23.22
2019-04-11T03:46:01.869Z,28.38
2019-04-11T03:48:23.585Z,24.72
2019-04-11T03:50:40.200Z,25.12
2019-04-11T03:53:11.423Z,21.62
2019-04-11T03:55:41.084Z,21.35
2019-04-11T03:58:10.550Z,23.98
2019-04-11T04:00:43.655Z,23.02
2019-04-11T04:03:13.445Z,22.35
2019-04-11T04:05:44.286Z,23.70
2019-04-11T04:08:14.396Z,22.93
2019-04-11T04:10:45.580Z,23.47
2019-04-11T04:13:18.925Z,20.45
2019-04-11T04:16:10.404Z,25.70
2019-04-11T04:18:32.141Z,21.27
2019-04-11T04:21:04.311Z,23.77
2019-04-11T04:23:37.845Z,24.87
2019-04-11T04:26:10.058Z,23.15
2019-04-11T04:28:40.788Z,27.70
2019-04-11T04:31:11.469Z,29.02
2019-04-11T04:33:42.802Z,22.48
2019-04-11T04:36:13.864Z,23.67
2019-04-11T04:38:44.520Z,24.10
2019-04-11T04:41:28.294Z,24.10
2019-04-11T04:43:48.095Z,26.82
2019-04-11T04:46:34.717Z,24.80
2019-04-11T04:48:51.025Z,26.27
2019-04-11T04:51:20.686Z,26.52
2019-04-11T04:53:52.133Z,28.98
2019-04-11T04:56:26.034Z,25.80
2019-04-11T04:58:54.040Z,26.05
2019-04-11T05:01:23.887Z,26.33
2019-04-11T05:03:54.064Z,28.12
2019-04-11T05:06:24.119Z,28.20
2019-04-11T05:08:53.675Z,25.40
2019-04-11T05:11:23.311Z,26.82
2019-04-11T05:13:54.342Z,25.15
2019-04-11T05:16:24.019Z,23.62
2019-04-11T05:18:54.652Z,26.93
2019-04-11T05:21:25.348Z,26.95
2019-04-11T05:23:56.684Z,29.05
2019-04-11T05:26:26.157Z,28.20
2019-04-11T05:28:55.658Z,26.87
2019-04-11T05:31:24.938Z,26.80
2019-04-11T05:33:54.248Z,27.17
2019-04-11T05:36:24.719Z,22.95
2019-04-11T05:38:54.739Z,26.23
2019-04-11T05:41:24.710Z,24.02
2019-04-11T05:43:55.734Z,23.18
2019-04-11T05:46:33.479Z,21.20
2019-04-11T05:49:04.225Z,22.25
2019-04-11T05:51:40.998Z,20.35
2019-04-11T05:54:07.754Z,22.65
2019-04-11T05:56:37.557Z,22.30
2019-04-11T05:59:09.455Z,20.52
2019-04-11T06:01:44.604Z,17.87
2019-04-11T06:04:32.294Z,17.82
2019-04-11T06:07:08.425Z,18.32
2019-04-11T06:09:41.430Z,16.48
2019-04-11T06:12:17.593Z,16.85
2019-04-11T06:14:49.290Z,16.87
2019-04-11T06:17:19.932Z,17.50
2019-04-11T06:20:08.241Z,17.15
2019-04-11T06:22:40.132Z,18.00
2019-04-11T06:25:18.818Z,19.87
2019-04-11T06:27:49.635Z,21.75
2019-04-11T06:30:21.042Z,25.43
2019-04-11T06:32:54.664Z,23.50
2019-04-11T06:35:26.149Z,24.30
2019-04-11T06:38:14.151Z,23.98
2019-04-11T06:40:46.122Z,26.42
2019-04-11T06:43:23.659Z,23.25
2019-04-11T06:45:57.253Z,24.65
2019-04-11T06:48:40.249Z,23.47
2019-04-11T06:51:11.616Z,25.57
2019-04-11T06:53:44.069Z,21.73
2019-04-11T06:56:19.079Z,30.50
2019-04-11T06:58:54.124Z,25.88
2019-04-11T07:01:25.863Z,23.45
2019-04-11T07:03:57.474Z,23.18
2019-04-11T07:06:29.398Z,21.33
2019-04-11T07:09:12.545Z,20.82
2019-04-11T07:11:50.709Z,20.32
2019-04-11T07:14:38.325Z,22.17
2019-04-11T07:17:25.408Z,21.80
2019-04-11T07:20:13.055Z,22.65
2019-04-11T07:23:01.604Z,25.90
2019-04-11T07:25:47.941Z,22.98
2019-04-11T07:28:35.755Z,24.85
2019-04-11T07:31:10.551Z,21.15
2019-04-11T07:34:00.864Z,24.90
2019-04-11T07:36:48.390Z,24.87
2019-04-11T07:39:25.649Z,23.77
2019-04-11T07:42:00.377Z,23.50
2019-04-11T07:44:34.216Z,23.62
2019-04-11T07:47:17.244Z,23.15
2019-04-11T07:49:42.893Z,22.85
2019-04-11T07:52:22.401Z,26.10
2019-04-11T07:54:51.683Z,21.57
2019-04-11T07:57:26.335Z,21.25
2019-04-11T08:00:08.249Z,22.10
2019-04-11T08:02:40.495Z,21.23
2019-04-11T08:05:30.412Z,25.48
2019-04-11T08:08:17.940Z,22.62
2019-04-11T08:10:55.215Z,28.17
2019-04-11T08:13:30.357Z,22.73
2019-04-11T08:16:14.667Z,21.90
2019-04-11T08:18:51.595Z,23.47
2019-04-11T08:21:38.989Z,24.27
2019-04-11T08:24:10.059Z,29.82
2019-04-11T08:26:53.116Z,25.27
2019-04-11T08:29:24.288Z,23.62
2019-04-11T08:32:11.807Z,26.10
2019-04-11T08:34:43.732Z,20.25
2019-04-11T08:37:31.712Z,21.37
2019-04-11T08:40:01.833Z,20.27
2019-04-11T08:42:50.856Z,22.52
2019-04-11T08:45:22.163Z,19.45
2019-04-11T08:47:55.631Z,20.27
2019-04-11T08:50:28.263Z,22.75
2019-04-11T08:53:02.561Z,19.70
2019-04-11T08:55:45.604Z,22.10
2019-04-11T08:58:06.539Z,25.88
2019-04-11T09:00:40.083Z,20.48
2019-04-11T09:03:26.016Z,18.32
2019-04-11T09:06:06.332Z,25.62
2019-04-11T09:08:54.407Z,19.07
2019-04-11T09:11:25.675Z,21.62
2019-04-11T09:14:06.112Z,19.85
2019-04-11T09:16:56.238Z,18.55
2019-04-11T09:19:27.338Z,17.27
2019-04-11T09:22:17.118Z,17.65
2019-04-11T09:24:51.051Z,16.87
2019-04-11T09:27:25.139Z,14.63
2019-04-11T09:30:02.508Z,16.73
2019-04-11T09:32:51.517Z,17.17
2019-04-11T09:35:25.042Z,15.38
2019-04-11T09:37:56.142Z,16.20
2019-04-11T09:40:36.280Z,15.35
2019-04-11T09:43:09.885Z,14.85
2019-04-11T09:45:47.986Z,15.35
2019-04-11T09:48:34.982Z,17.02
2019-04-11T09:51:07.335Z,13.78
2019-04-11T09:53:38.836Z,14.03
2019-04-11T09:56:27.122Z,14.93
2019-04-11T09:58:58.258Z,12.65
2019-04-11T10:01:38.277Z,12.13
2019-04-11T10:04:09.342Z,14.25
2019-04-11T10:06:48.700Z,13.08
2019-04-11T10:09:18.106Z,13.18
2019-04-11T10:12:06.535Z,12.95
2019-04-11T10:14:35.845Z,12.05
2019-04-11T10:17:26.000Z,12.33
2019-04-11T10:19:54.305Z,14.78
2019-04-11T10:22:32.214Z,14.15
2019-04-11T10:25:08.847Z,12.10
2019-04-11T10:27:49.038Z,13.20
2019-04-11T10:30:36.302Z,12.07
2019-04-11T10:33:17.030Z,11.75
2019-04-11T10:36:03.277Z,12.10
2019-04-11T10:38:33.343Z,14.45
2019-04-11T10:41:04.401Z,15.40
2019-04-11T10:43:34.451Z,13.38
2019-04-11T10:46:17.460Z,11.57
2019-04-11T10:48:49.146Z,12.95
2019-04-11T10:51:38.194Z,10.72
2019-04-11T10:54:08.576Z,12.75
2019-04-11T10:56:55.813Z,14.78
2019-04-11T10:59:27.964Z,12.88
2019-04-11T11:02:00.171Z,12.30
2019-04-11T11:04:32.455Z,14.73
2019-04-11T11:09:44.398Z,19.62
2019-04-11T11:12:21.329Z,15.85
2019-04-11T11:14:55.384Z,13.45
2019-04-11T11:18:00.995Z,13.08
2019-04-11T11:20:38.644Z,10.05
2019-04-11T11:23:22.912Z,11.15
2019-04-11T11:26:09.135Z,11.60
2019-04-11T11:28:50.819Z,11.95
2019-04-11T11:31:24.864Z,12.98
2019-04-11T11:33:56.542Z,10.98
2019-04-11T11:36:43.764Z,10.60
2019-04-11T11:39:19.241Z,15.15
2019-04-11T11:42:06.505Z,12.18
2019-04-11T11:44:55.226Z,13.78
2019-04-11T11:47:43.213Z,13.80
2019-04-11T11:50:19.831Z,13.13
2019-04-11T11:53:09.931Z,11.65
2019-04-11T11:55:38.940Z,12.20
2019-04-11T11:58:22.029Z,10.68
2019-04-11T12:00:55.368Z,9.98
2019-04-11T12:03:32.960Z,11.65
2019-04-11T12:06:05.295Z,11.10
2019-04-11T12:08:56.080Z,12.68
2019-04-11T12:11:26.328Z,11.65
2019-04-11T12:14:09.752Z,11.65
2019-04-11T12:16:59.531Z,12.63
2019-04-11T12:19:26.899Z,10.68
2019-04-11T12:21:57.985Z,14.13
2019-04-11T12:24:41.064Z,12.70
2019-04-11T12:27:18.538Z,11.90
2019-04-11T12:29:53.476Z,11.93
2019-04-11T12:32:24.431Z,13.65
2019-04-11T12:34:56.110Z,11.45
2019-04-11T12:37:29.826Z,12.60
2019-04-11T12:40:17.281Z,12.20
2019-04-11T12:42:46.931Z,11.75
2019-04-11T12:45:30.234Z,13.65
2019-04-11T12:47:59.742Z,17.10
2019-04-11T12:50:36.947Z,15.83
2019-04-11T12:53:08.534Z,12.30
2019-04-11T12:55:51.627Z,12.82
2019-04-11T12:58:25.482Z,15.40
2019-04-11T13:01:12.994Z,13.55
2019-04-11T13:03:46.535Z,13.30
2019-04-11T13:06:35.111Z,13.00
2019-04-11T13:09:20.429Z,14.05
2019-04-11T13:11:51.392Z,15.50
2019-04-11T13:14:25.337Z,12.70
2019-04-11T13:16:56.402Z,16.20
2019-04-11T13:19:44.077Z,13.40
2019-04-11T13:22:15.042Z,11.73
2019-04-11T13:24:54.747Z,14.83
2019-04-11T13:27:25.772Z,15.32
2019-04-11T13:30:12.794Z,13.98
2019-04-11T13:32:46.627Z,14.75
2019-04-11T13:35:21.649Z,16.45
2019-04-11T13:38:08.644Z,21.00
2019-04-11T13:40:45.625Z,15.72
2019-04-11T13:43:22.686Z,17.17
2019-04-11T13:45:56.403Z,25.35
2019-04-11T13:48:44.900Z,17.12
2019-04-11T13:51:18.629Z,13.70
2019-04-11T13:54:06.247Z,15.65
2019-04-11T13:56:49.343Z,18.25
2019-04-11T13:59:35.607Z,12.68
2019-04-11T14:02:17.707Z,13.85
2019-04-11T14:05:03.888Z,14.03
2019-04-11T14:07:34.798Z,14.98
2019-04-11T14:10:06.887Z,14.13
2019-04-11T14:12:36.819Z,14.95
2019-04-11T14:15:08.609Z,11.97
2019-04-11T14:17:55.757Z,19.55
2019-04-11T14:20:35.787Z,13.60
2019-04-11T14:23:15.195Z,14.30
2019-04-11T14:25:53.473Z,14.58
2019-04-11T14:28:39.300Z,18.87
2019-04-11T14:31:16.293Z,15.20
2019-04-11T14:34:03.671Z,17.40
2019-04-11T14:36:49.724Z,15.88
2019-04-11T14:39:20.807Z,13.20
2019-04-11T14:42:11.748Z,13.95
2019-04-11T14:44:42.146Z,16.87
2019-04-11T14:47:29.715Z,16.73
2019-04-11T14:50:01.093Z,14.95
2019-04-11T14:52:48.364Z,15.43
2019-04-11T14:55:19.622Z,16.70
2019-04-11T14:58:06.869Z,14.85
2019-04-11T15:00:38.480Z,17.65
2019-04-11T15:03:25.918Z,14.68
2019-04-11T15:05:58.702Z,16.65
2019-04-11T15:08:38.747Z,14.68
2019-04-11T15:11:09.835Z,15.93
2019-04-11T15:13:41.041Z,15.28
2019-04-11T15:16:11.935Z,14.75
2019-04-11T15:18:42.982Z,16.65
2019-04-11T15:21:30.169Z,15.43
2019-04-11T15:23:59.494Z,16.05
2019-04-11T15:26:30.504Z,17.67
2019-04-11T15:29:01.448Z,21.95
2019-04-11T15:31:49.614Z,15.83
2019-04-11T15:34:37.492Z,14.68
2019-04-11T15:37:28.116Z,19.57
2019-04-11T15:40:07.876Z,16.35
2019-04-11T15:42:41.962Z,18.77
2019-04-11T15:45:19.035Z,18.70
2019-04-11T15:47:52.794Z,16.93
2019-04-11T15:50:40.280Z,20.02
2019-04-11T15:53:09.559Z,17.00
2019-04-11T15:55:43.473Z,17.15
2019-04-11T15:58:13.554Z,15.63
2019-04-11T16:00:44.679Z,18.05
2019-04-11T16:03:14.239Z,17.23
2019-04-11T16:06:02.131Z,17.23
2019-04-11T16:08:33.245Z,14.95
2019-04-11T16:11:06.975Z,15.55
2019-04-11T16:13:49.739Z,16.93
2019-04-11T16:16:20.818Z,18.25
2019-04-11T16:18:57.892Z,19.80
2019-04-11T16:21:39.967Z,17.05
2019-04-11T16:24:27.613Z,16.75
2019-04-11T16:27:05.092Z,14.75
2019-04-11T16:29:44.858Z,17.80
2019-04-11T16:32:18.972Z,15.90
2019-04-11T16:34:54.385Z,16.23
2019-04-11T16:37:21.200Z,16.87
2019-04-11T16:40:10.088Z,16.48
2019-04-11T16:42:41.312Z,17.77
2019-04-11T16:45:29.871Z,14.30
2019-04-11T16:48:05.266Z,15.13
2019-04-11T16:50:34.814Z,16.07
2019-04-11T16:53:04.286Z,17.00
2019-04-11T16:55:36.538Z,18.20
2019-04-11T16:58:04.975Z,19.48
2019-04-11T17:00:36.007Z,19.02
2019-04-11T17:03:05.434Z,20.10
2019-04-11T17:05:35.406Z,17.45
2019-04-11T17:08:06.337Z,19.12
2019-04-11T17:10:56.695Z,20.30
2019-04-11T17:13:25.983Z,19.30
2019-04-11T17:15:55.365Z,20.55
2019-04-11T17:18:24.803Z,21.30
2019-04-11T17:20:54.118Z,17.87
2019-04-11T17:23:23.574Z,17.80
2019-04-11T17:25:53.803Z,19.35
2019-04-11T17:28:24.319Z,19.65
2019-04-11T17:30:55.767Z,20.12
2019-04-11T17:33:27.785Z,19.40
2019-04-11T17:35:56.195Z,18.73
2019-04-11T17:38:25.553Z,19.23
2019-04-11T17:40:54.918Z,18.92
2019-04-11T17:43:24.324Z,20.15
2019-04-11T17:45:56.976Z,20.02
2019-04-11T17:48:24.902Z,19.98
2019-04-11T17:50:55.093Z,18.62
2019-04-11T17:53:24.875Z,21.87
2019-04-11T17:55:55.089Z,21.33
2019-04-11T17:58:27.053Z,20.60
2019-04-11T18:00:57.281Z,20.02
2019-04-11T18:03:26.568Z,23.20
2019-04-11T18:05:55.873Z,22.82
2019-04-11T18:08:25.466Z,22.98
2019-04-11T18:10:56.021Z,21.27
2019-04-11T18:13:30.566Z,21.50
2019-04-11T18:18:28.954Z,22.27
2019-04-11T18:20:58.452Z,21.40
2019-04-11T18:23:28.061Z,21.10
2019-04-11T18:25:57.458Z,26.35
2019-04-11T18:28:26.814Z,25.30
2019-04-11T18:30:56.275Z,22.85
2019-04-11T18:33:25.669Z,23.15
2019-04-11T18:35:55.026Z,23.77
2019-04-11T18:38:25.475Z,33.40
2019-04-11T18:40:54.957Z,22.77
2019-04-11T18:43:25.563Z,22.42
2019-04-11T18:45:55.118Z,27.42
2019-04-11T18:48:24.533Z,22.10
2019-04-11T18:50:53.982Z,29.02
2019-04-11T18:53:23.387Z,22.15
2019-04-11T18:55:52.794Z,21.80
2019-04-11T18:58:22.222Z,25.02
2019-04-11T19:00:51.718Z,20.40
2019-04-11T19:03:21.186Z,25.27
2019-04-11T19:05:50.533Z,23.40
2019-04-11T19:08:20.127Z,24.00
2019-04-11T19:10:49.491Z,23.20
2019-04-11T19:13:20.510Z,24.82
2019-04-11T19:15:49.821Z,22.40
2019-04-11T19:18:19.278Z,22.67
2019-04-11T19:20:50.397Z,24.02
2019-04-11T19:23:19.730Z,22.35
2019-04-11T19:25:49.006Z,19.98
2019-04-11T19:28:19.899Z,20.60
2019-04-11T19:30:49.225Z,21.30
2019-04-11T19:33:19.270Z,19.80
2019-04-11T19:35:49.632Z,20.75
2019-04-11T19:38:30.847Z,20.75
2019-04-11T19:41:00.338Z,23.18
2019-04-11T19:43:29.633Z,20.40
2019-04-11T19:45:59.343Z,19.65
2019-04-11T19:48:28.684Z,20.35
2019-04-11T19:50:58.969Z,21.80
2019-04-11T19:53:32.877Z,20.15
2019-04-11T19:56:16.911Z,20.97
2019-04-11T19:58:46.836Z,22.42
2019-04-11T20:01:16.410Z,21.93
2019-04-11T20:03:47.023Z,23.90
2019-04-11T20:06:16.454Z,21.60
2019-04-11T20:08:47.704Z,24.50
2019-04-11T20:11:17.924Z,21.10
2019-04-11T20:13:47.280Z,21.70
2019-04-11T20:16:16.569Z,22.32
2019-04-11T20:18:51.351Z,24.57
2019-04-11T20:21:17.036Z,19.65
2019-04-11T20:23:46.556Z,21.30
2019-04-11T20:26:19.981Z,20.05
2019-04-11T20:28:48.211Z,23.05
2019-04-11T20:31:18.023Z,24.82
2019-04-11T20:33:47.349Z,20.85
2019-04-11T20:36:16.614Z,22.32
2019-04-11T20:38:47.150Z,24.47
2019-04-11T20:41:16.537Z,24.30
2019-04-11T20:43:45.825Z,24.30
2019-04-11T20:46:15.481Z,24.32
2019-04-11T20:48:45.094Z,25.12
2019-04-11T20:51:14.435Z,30.27
2019-04-11T20:53:43.734Z,23.15
2019-04-11T20:56:23.588Z,28.10
2019-04-11T20:58:44.691Z,28.10
2019-04-11T21:01:14.269Z,23.38
2019-04-11T21:03:43.592Z,26.30
2019-04-11T21:06:12.886Z,27.40
2019-04-11T21:08:42.235Z,27.62
2019-04-11T21:11:11.545Z,27.35
2019-04-11T21:13:41.164Z,27.02
2019-04-11T21:16:10.525Z,25.30
2019-04-11T21:18:39.892Z,31.70
2019-04-11T21:21:09.193Z,25.30
2019-04-11T21:23:38.803Z,27.22
2019-04-11T21:26:08.099Z,24.67
2019-04-11T21:28:37.465Z,25.32
2019-04-11T21:31:07.024Z,23.35
2019-04-11T21:33:36.320Z,29.95
2019-04-11T21:36:05.701Z,22.75
2019-04-11T21:38:35.281Z,20.45
2019-04-11T21:41:06.090Z,26.33
2019-04-11T21:43:36.204Z,23.55
2019-04-11T21:46:06.859Z,25.85
2019-04-11T21:48:37.118Z,27.17
2019-04-11T21:51:11.051Z,30.75
2019-04-11T21:53:37.489Z,22.58
2019-04-11T21:56:06.862Z,22.48
2019-04-11T21:58:37.253Z,22.90
2019-04-11T22:01:09.455Z,23.38
2019-04-11T22:06:07.849Z,22.15
2019-04-11T22:08:37.221Z,25.90
2019-04-11T22:11:09.906Z,23.70
2019-04-11T22:13:40.435Z,26.25
2019-04-11T22:16:13.485Z,24.90
2019-04-11T22:18:40.278Z,24.45
2019-04-11T22:21:09.650Z,23.55
2019-04-11T22:23:48.251Z,23.47
2019-04-11T22:26:09.923Z,24.35
2019-04-11T22:28:39.616Z,23.27
2019-04-11T22:31:09.413Z,25.88
2019-04-11T22:33:43.417Z,22.90
2019-04-11T22:36:12.798Z,23.05
2019-04-11T22:38:42.172Z,22.55
2019-04-11T22:41:11.486Z,23.62
2019-04-11T22:43:41.010Z,25.60
2019-04-11T22:46:20.312Z,25.12
2019-04-11T22:48:43.036Z,26.55
2019-04-11T22:51:12.403Z,23.83
2019-04-11T22:53:43.326Z,21.12
2019-04-11T22:56:12.841Z,25.92
2019-04-11T22:58:43.514Z,25.23
2019-04-11T23:01:16.626Z,28.35
2019-04-11T23:03:49.279Z,27.27
2019-04-11T23:06:18.660Z,23.05
2019-04-11T23:08:48.978Z,23.87
2019-04-11T23:11:19.131Z,26.00
2019-04-11T23:13:48.579Z,27.65
2019-04-11T23:16:18.033Z,24.80
2019-04-11T23:18:47.480Z,23.62
2019-04-11T23:21:16.859Z,23.90
2019-04-11T23:23:46.159Z,22.90
2019-04-11T23:26:15.676Z,23.50
2019-04-11T23:28:46.719Z,22.00
2019-04-11T23:31:20.104Z,23.22
2019-04-11T23:33:51.798Z,23.83
2019-04-11T23:36:21.314Z,26.52
2019-04-11T23:38:52.605Z,23.83
2019-04-11T23:41:22.219Z,26.57
2019-04-11T23:43:51.491Z,24.95
2019-04-11T23:46:21.387Z,23.15
2019-04-11T23:48:55.486Z,25.10
2019-04-11T23:51:26.306Z,24.85
2019-04-11T23:53:54.342Z,25.10
2019-04-11T23:56:23.643Z,22.77
2019-04-11T23:58:53.125Z,22.73
